createdAt,value
2022-08-26T00:01:36.675Z,29.56
2022-08-26T00:04:07.496Z,29.47
2022-08-26T00:06:38.201Z,29.62
2022-08-26T00:09:13.237Z,29.62
2022-08-26T00:11:47.198Z,28.93
2022-08-26T00:14:18.478Z,29.31
2022-08-26T00:16:49.058Z,29.32
2022-08-26T00:19:21.591Z,28.99
2022-08-26T00:21:52.631Z,29.16
2022-08-26T00:24:23.719Z,29.16
2022-08-26T00:26:54.058Z,28.63
2022-08-26T00:29:24.654Z,28.91
2022-08-26T00:31:54.857Z,28.80
2022-08-26T00:34:25.362Z,28.79
2022-08-26T00:36:57.993Z,28.79
2022-08-26T00:39:28.928Z,28.75
2022-08-26T00:41:59.267Z,28.43
2022-08-26T00:44:29.803Z,28.57
2022-08-26T00:47:04.464Z,28.19
2022-08-26T00:49:44.275Z,28.66
2022-08-26T00:52:19.029Z,28.74
2022-08-26T00:55:01.912Z,28.45
2022-08-26T00:57:34.519Z,28.70
2022-08-26T01:00:12.133Z,28.50
2022-08-26T01:02:46.799Z,28.52
2022-08-26T01:05:20.327Z,28.45
2022-08-26T01:07:50.479Z,28.40
2022-08-26T01:10:28.701Z,28.28
2022-08-26T01:13:04.637Z,28.24
2022-08-26T01:15:45.112Z,28.28
2022-08-26T01:18:16.347Z,28.22
2022-08-26T01:21:15.607Z,28.16
2022-08-26T01:23:50.273Z,28.15
2022-08-26T01:26:25.862Z,28.18
2022-08-26T01:29:00.199Z,28.21
2022-08-26T01:31:36.574Z,28.28
2022-08-26T01:34:27.543Z,28.22
2022-08-26T01:37:14.679Z,28.18
2022-08-26T01:39:51.306Z,28.19
2022-08-26T01:42:25.968Z,28.15
2022-08-26T01:45:07.426Z,28.03
2022-08-26T01:47:39.158Z,28.08
2022-08-26T01:50:27.880Z,27.68
2022-08-26T01:53:05.153Z,27.95
2022-08-26T01:55:35.970Z,27.98
2022-08-26T01:58:09.806Z,27.93
2022-08-26T02:00:44.078Z,27.62
2022-08-26T02:03:22.655Z,26.95
2022-08-26T02:05:55.764Z,26.95
2022-08-26T02:08:33.806Z,26.39
2022-08-26T02:11:03.919Z,26.91
2022-08-26T02:13:40.702Z,26.96
2022-08-26T02:16:14.287Z,26.95
2022-08-26T02:18:46.962Z,26.59
2022-08-26T02:21:20.159Z,26.94
2022-08-26T02:23:53.607Z,27.00
2022-08-26T02:26:29.636Z,26.98
2022-08-26T02:29:12.895Z,27.05
2022-08-26T02:31:44.925Z,27.15
2022-08-26T02:34:17.988Z,27.17
2022-08-26T02:36:48.182Z,27.28
2022-08-26T02:39:22.063Z,27.33
2022-08-26T02:41:52.548Z,27.37
2022-08-26T02:44:23.493Z,27.37
2022-08-26T02:46:55.816Z,27.30
2022-08-26T02:49:27.716Z,27.25
2022-08-26T02:51:58.903Z,27.12
2022-08-26T02:54:32.583Z,27.20
2022-08-26T02:57:04.755Z,27.08
2022-08-26T02:59:37.543Z,26.18
2022-08-26T03:02:08.355Z,25.54
2022-08-26T03:04:40.404Z,26.11
2022-08-26T03:07:27.811Z,26.34
2022-08-26T03:09:58.786Z,25.96
2022-08-26T03:12:29.059Z,26.24
2022-08-26T03:15:00.291Z,25.84
2022-08-26T03:17:31.202Z,25.62
2022-08-26T03:20:07.651Z,25.75
2022-08-26T03:22:39.876Z,26.02
2022-08-26T03:25:13.291Z,26.22
2022-08-26T03:27:44.946Z,26.23
2022-08-26T03:30:45.120Z,26.33
2022-08-26T03:33:16.504Z,26.43
2022-08-26T03:35:50.918Z,26.46
2022-08-26T03:38:22.679Z,26.50
2022-08-26T03:40:53.651Z,26.51
2022-08-26T03:43:27.812Z,26.61
2022-08-26T03:45:58.170Z,26.62
2022-08-26T03:48:28.430Z,26.55
2022-08-26T03:51:00.961Z,26.37
2022-08-26T03:53:33.311Z,26.42
2022-08-26T03:56:07.724Z,26.37
2022-08-26T03:58:38.548Z,26.03
2022-08-26T04:01:09.182Z,25.42
2022-08-26T04:03:59.985Z,25.26
2022-08-26T04:06:35.804Z,25.84
2022-08-26T04:09:13.211Z,25.80
2022-08-26T04:11:46.909Z,25.92
2022-08-26T04:14:24.869Z,25.97
2022-08-26T04:16:57.692Z,26.04
2022-08-26T04:19:29.153Z,26.03
2022-08-26T04:21:59.889Z,25.60
2022-08-26T04:24:31.655Z,25.69
2022-08-26T04:27:04.522Z,25.37
2022-08-26T04:29:34.969Z,25.44
2022-08-26T04:32:08.555Z,24.93
2022-08-26T04:34:40.082Z,25.56
2022-08-26T04:37:11.840Z,25.51
2022-08-26T04:39:43.770Z,25.66
2022-08-26T04:42:14.642Z,25.68
2022-08-26T04:44:45.048Z,25.68
2022-08-26T04:47:15.043Z,25.61
2022-08-26T04:49:45.514Z,25.31
2022-08-26T04:52:15.134Z,24.45
2022-08-26T04:54:46.558Z,25.25
2022-08-26T04:57:16.118Z,24.87
2022-08-26T04:59:46.170Z,25.18
2022-08-26T05:02:20.459Z,25.10
2022-08-26T05:04:51.816Z,24.70
2022-08-26T05:07:22.343Z,25.06
2022-08-26T05:09:53.163Z,25.21
2022-08-26T05:12:24.914Z,24.99
2022-08-26T05:14:54.625Z,25.18
2022-08-26T05:17:24.771Z,25.09
2022-08-26T05:19:55.349Z,25.14
2022-08-26T05:22:25.486Z,25.08
2022-08-26T05:24:56.377Z,24.99
2022-08-26T05:27:27.023Z,25.13
2022-08-26T05:29:59.700Z,24.81
2022-08-26T05:32:30.146Z,24.53
2022-08-26T05:35:00.713Z,24.48
2022-08-26T05:37:31.214Z,24.40
2022-08-26T05:40:03.777Z,24.50
2022-08-26T05:42:34.607Z,24.48
2022-08-26T05:45:05.988Z,24.73
2022-08-26T05:47:37.347Z,24.91
2022-08-26T05:50:08.229Z,24.60
2022-08-26T05:52:38.908Z,24.06
2022-08-26T05:55:09.275Z,24.53
2022-08-26T05:57:42.773Z,24.91
2022-08-26T06:00:16.608Z,24.87
2022-08-26T06:02:48.462Z,24.92
2022-08-26T06:05:18.736Z,24.45
2022-08-26T06:08:07.703Z,24.01
2022-08-26T06:11:18.584Z,24.12
2022-08-26T06:13:49.212Z,24.09
2022-08-26T06:16:20.620Z,23.75
2022-08-26T06:18:53.177Z,23.74
2022-08-26T06:21:29.962Z,24.30
2022-08-26T06:24:27.244Z,23.86
2022-08-26T06:27:02.483Z,23.66
2022-08-26T06:29:36.120Z,23.84
2022-08-26T06:32:08.780Z,23.82
2022-08-26T06:34:39.477Z,24.30
2022-08-26T06:37:10.027Z,24.07
2022-08-26T06:39:41.299Z,23.59
2022-08-26T06:42:12.058Z,24.28
2022-08-26T06:44:44.700Z,24.36
2022-08-26T06:47:15.003Z,24.20
2022-08-26T06:49:45.608Z,24.30
2022-08-26T06:52:17.167Z,24.40
2022-08-26T06:54:51.683Z,24.26
2022-08-26T06:57:23.150Z,24.00
2022-08-26T06:59:53.699Z,24.17
2022-08-26T07:02:28.591Z,24.18
2022-08-26T07:04:59.276Z,24.18
2022-08-26T07:07:31.467Z,24.21
2022-08-26T07:10:01.864Z,23.82
2022-08-26T07:12:33.315Z,23.97
2022-08-26T07:15:04.523Z,24.05
2022-08-26T07:17:35.597Z,24.03
2022-08-26T07:20:10.023Z,23.95
2022-08-26T07:22:40.574Z,23.66
2022-08-26T07:25:13.062Z,24.04
2022-08-26T07:27:42.675Z,24.03
2022-08-26T07:30:14.836Z,24.15
2022-08-26T07:32:44.975Z,24.04
2022-08-26T07:35:15.464Z,24.18
2022-08-26T07:37:46.282Z,24.14
2022-08-26T07:40:18.402Z,24.37
2022-08-26T07:42:48.853Z,24.42
2022-08-26T07:45:19.298Z,24.50
2022-08-26T07:47:49.942Z,24.52
2022-08-26T07:50:20.549Z,24.00
2022-08-26T07:52:51.410Z,23.95
2022-08-26T07:55:24.092Z,23.50
2022-08-26T07:57:54.610Z,24.13
2022-08-26T08:00:25.986Z,24.26
2022-08-26T08:02:56.855Z,24.32
2022-08-26T08:05:28.495Z,24.34
2022-08-26T08:08:27.899Z,24.33
2022-08-26T08:10:58.924Z,24.02
2022-08-26T08:13:30.521Z,24.02
2022-08-26T08:16:03.944Z,24.06
2022-08-26T08:18:34.694Z,23.98
2022-08-26T08:21:21.449Z,24.01
2022-08-26T08:23:56.475Z,23.78
2022-08-26T08:26:27.729Z,23.78
2022-08-26T08:28:59.571Z,24.06
2022-08-26T08:31:55.895Z,23.82
2022-08-26T08:34:24.117Z,23.86
2022-08-26T08:36:56.367Z,23.21
2022-08-26T08:39:27.625Z,22.48
2022-08-26T08:42:05.362Z,23.36
2022-08-26T08:44:42.218Z,23.27
2022-08-26T08:47:26.657Z,23.54
2022-08-26T08:50:01.415Z,22.87
2022-08-26T08:52:36.393Z,23.12
2022-08-26T08:55:11.011Z,22.77
2022-08-26T08:58:08.131Z,23.40
2022-08-26T09:00:50.645Z,23.19
2022-08-26T09:03:40.122Z,23.46
2022-08-26T09:06:18.158Z,23.46
2022-08-26T09:08:50.727Z,23.12
2022-08-26T09:11:22.063Z,23.48
2022-08-26T09:13:55.106Z,22.83
2022-08-26T09:16:35.584Z,22.86
2022-08-26T09:19:27.322Z,22.47
2022-08-26T09:22:05.798Z,22.54
2022-08-26T09:24:48.505Z,23.26
2022-08-26T09:27:45.015Z,23.15
2022-08-26T09:30:30.548Z,23.69
2022-08-26T09:33:16.885Z,23.75
2022-08-26T09:35:49.607Z,22.97
2022-08-26T09:38:29.113Z,22.81
2022-08-26T09:41:02.574Z,23.00
2022-08-26T09:43:35.699Z,23.28
2022-08-26T09:46:24.638Z,23.89
2022-08-26T09:48:55.268Z,22.71
2022-08-26T09:51:33.068Z,23.29
2022-08-26T09:54:05.703Z,22.39
2022-08-26T09:56:40.189Z,23.68
2022-08-26T09:59:13.186Z,24.02
2022-08-26T10:01:45.268Z,23.91
2022-08-26T10:04:23.497Z,23.86
2022-08-26T10:07:03.331Z,23.36
2022-08-26T10:09:44.217Z,23.58
2022-08-26T10:12:21.780Z,24.00
2022-08-26T10:14:59.336Z,24.26
2022-08-26T10:17:44.715Z,24.42
2022-08-26T10:20:27.580Z,24.76
2022-08-26T10:23:03.003Z,24.73
2022-08-26T10:25:40.353Z,24.73
2022-08-26T10:28:29.079Z,24.58
2022-08-26T10:31:29.186Z,24.80
2022-08-26T10:34:00.491Z,25.23
2022-08-26T10:37:13.662Z,25.52
2022-08-26T10:40:06.534Z,25.87
2022-08-26T10:42:51.687Z,26.06
2022-08-26T10:45:26.456Z,25.83
2022-08-26T10:48:12.263Z,25.65
2022-08-26T10:50:47.519Z,25.88
2022-08-26T10:53:51.421Z,25.89
2022-08-26T10:56:50.981Z,24.85
2022-08-26T10:59:36.928Z,25.58
2022-08-26T11:02:33.897Z,26.48
2022-08-26T11:05:11.841Z,26.74
2022-08-26T11:07:47.349Z,26.75
2022-08-26T11:10:25.798Z,27.23
2022-08-26T11:13:04.926Z,27.61
2022-08-26T11:15:37.923Z,27.83
2022-08-26T11:18:13.267Z,28.29
2022-08-26T11:20:47.360Z,28.25
2022-08-26T11:23:28.980Z,28.69
2022-08-26T11:26:11.992Z,29.18
2022-08-26T11:28:51.560Z,29.82
2022-08-26T11:31:29.642Z,29.94
2022-08-26T11:34:04.033Z,29.76
2022-08-26T11:36:43.230Z,29.71
2022-08-26T11:39:54.472Z,29.73
2022-08-26T11:42:35.452Z,30.12
2022-08-26T11:45:15.500Z,30.30
2022-08-26T11:47:46.458Z,30.10
2022-08-26T11:50:21.851Z,30.65
2022-08-26T11:53:02.828Z,30.14
2022-08-26T11:55:35.404Z,30.39
2022-08-26T11:58:08.652Z,30.32
2022-08-26T12:01:09.823Z,30.35
2022-08-26T12:03:49.976Z,30.50
2022-08-26T12:06:52.054Z,30.79
2022-08-26T12:09:30.322Z,31.15
2022-08-26T12:12:12.603Z,31.90
2022-08-26T12:14:44.118Z,32.17
2022-08-26T12:17:18.207Z,32.44
2022-08-26T12:19:50.011Z,32.60
2022-08-26T12:22:27.058Z,32.46
2022-08-26T12:25:22.565Z,32.79
2022-08-26T12:27:54.066Z,32.43
2022-08-26T12:30:26.471Z,33.09
2022-08-26T12:33:22.349Z,33.32
2022-08-26T12:35:56.762Z,33.58
2022-08-26T12:38:28.666Z,33.39
2022-08-26T12:40:59.543Z,33.45
2022-08-26T12:43:59.284Z,33.51
2022-08-26T12:46:33.226Z,34.08
2022-08-26T12:49:04.469Z,34.17
2022-08-26T12:51:36.477Z,34.12
2022-08-26T12:54:07.927Z,35.22
2022-08-26T12:56:42.315Z,35.85
2022-08-26T12:59:28.284Z,36.28
2022-08-26T13:01:59.035Z,35.77
2022-08-26T13:04:42.358Z,35.79
2022-08-26T13:07:23.375Z,36.38
2022-08-26T13:09:56.304Z,36.51
2022-08-26T13:12:31.976Z,36.74
2022-08-26T13:15:03.770Z,37.02
2022-08-26T13:17:36.984Z,36.79
2022-08-26T13:20:07.839Z,36.91
2022-08-26T13:22:42.208Z,37.60
2022-08-26T13:25:13.008Z,37.86
2022-08-26T13:27:44.015Z,37.68
2022-08-26T13:30:14.750Z,36.80
2022-08-26T13:32:45.477Z,37.10
2022-08-26T13:35:15.714Z,37.53
2022-08-26T13:37:46.421Z,37.87
2022-08-26T13:40:16.701Z,37.76
2022-08-26T13:42:49.614Z,38.27
2022-08-26T13:45:20.274Z,37.87
2022-08-26T13:47:50.837Z,37.41
2022-08-26T13:50:21.071Z,37.23
2022-08-26T13:52:51.864Z,37.12
2022-08-26T13:55:22.067Z,37.55
2022-08-26T13:57:53.400Z,37.48
2022-08-26T14:00:24.269Z,37.32
2022-08-26T14:02:55.307Z,37.55
2022-08-26T14:05:25.634Z,37.71
2022-08-26T14:07:58.481Z,37.68
2022-08-26T14:10:29.539Z,38.79
2022-08-26T14:13:00.173Z,38.53
2022-08-26T14:15:31.174Z,38.43
2022-08-26T14:18:05.915Z,39.03
2022-08-26T14:20:39.936Z,38.38
2022-08-26T14:23:14.145Z,38.45
2022-08-26T14:25:44.755Z,37.53
2022-08-26T14:28:16.144Z,37.57
2022-08-26T14:30:52.554Z,37.04
2022-08-26T14:33:28.737Z,37.10
2022-08-26T14:36:18.692Z,37.46
2022-08-26T14:38:49.615Z,37.74
2022-08-26T14:41:21.542Z,38.17
2022-08-26T14:44:01.974Z,39.09
2022-08-26T14:46:35.693Z,39.03
2022-08-26T14:49:10.342Z,38.11
2022-08-26T14:51:42.120Z,38.85
2022-08-26T14:54:17.843Z,39.61
2022-08-26T14:56:53.603Z,40.19
2022-08-26T14:59:49.977Z,41.06
2022-08-26T15:02:27.761Z,41.41
2022-08-26T15:05:05.562Z,40.94
2022-08-26T15:07:36.087Z,41.57
2022-08-26T15:10:09.107Z,41.61
2022-08-26T15:12:40.186Z,42.01
2022-08-26T15:15:12.580Z,42.20
2022-08-26T15:17:43.129Z,41.58
2022-08-26T15:20:19.054Z,41.82
2022-08-26T15:22:49.747Z,42.30
2022-08-26T15:25:21.913Z,42.82
2022-08-26T15:27:52.235Z,42.48
2022-08-26T15:30:23.137Z,42.98
2022-08-26T15:32:53.441Z,43.12
2022-08-26T15:35:24.206Z,42.20
2022-08-26T15:37:54.492Z,41.28
2022-08-26T15:40:27.841Z,42.67
2022-08-26T15:43:17.748Z,42.93
2022-08-26T15:45:48.790Z,43.31
2022-08-26T15:48:19.006Z,42.98
2022-08-26T15:50:58.797Z,42.97
2022-08-26T15:53:32.394Z,43.34
2022-08-26T15:56:03.854Z,42.51
2022-08-26T15:58:34.170Z,43.25
2022-08-26T16:01:07.611Z,42.85
2022-08-26T16:03:38.042Z,42.71
2022-08-26T16:06:09.287Z,41.09
2022-08-26T16:08:40.001Z,41.69
2022-08-26T16:11:10.840Z,41.81
2022-08-26T16:13:41.134Z,41.65
2022-08-26T16:16:12.114Z,41.11
2022-08-26T16:18:43.414Z,40.95
2022-08-26T16:21:18.901Z,41.95
2022-08-26T16:23:49.518Z,41.60
2022-08-26T16:26:34.057Z,41.36
2022-08-26T16:29:08.758Z,40.63
2022-08-26T16:31:39.929Z,41.42
2022-08-26T16:34:11.028Z,41.50
2022-08-26T16:36:42.019Z,40.83
2022-08-26T16:39:12.245Z,40.64
2022-08-26T16:41:43.304Z,41.29
2022-08-26T16:44:13.553Z,42.02
2022-08-26T16:46:46.710Z,42.15
2022-08-26T16:49:17.276Z,42.06
2022-08-26T16:51:48.057Z,41.69
2022-08-26T16:54:18.274Z,42.01
2022-08-26T16:56:48.925Z,42.32
2022-08-26T16:59:19.207Z,42.55
2022-08-26T17:01:49.914Z,41.79
2022-08-26T17:04:20.927Z,41.66
2022-08-26T17:06:51.947Z,41.84
2022-08-26T17:09:22.952Z,42.45
2022-08-26T17:11:54.307Z,42.71
2022-08-26T17:14:24.562Z,42.67
2022-08-26T17:16:55.508Z,42.40
2022-08-26T17:19:26.426Z,41.49
2022-08-26T17:21:57.099Z,41.24
2022-08-26T17:24:29.387Z,41.45
2022-08-26T17:27:00.096Z,41.82
2022-08-26T17:29:30.450Z,42.10
2022-08-26T17:32:01.323Z,42.80
2022-08-26T17:34:31.991Z,43.47
2022-08-26T17:37:02.282Z,43.53
2022-08-26T17:39:32.675Z,44.19
2022-08-26T17:42:02.538Z,44.25
2022-08-26T17:44:33.296Z,44.27
2022-08-26T17:47:03.335Z,43.92
2022-08-26T17:49:33.822Z,44.38
2022-08-26T17:52:09.611Z,44.29
2022-08-26T17:54:41.938Z,43.54
2022-08-26T17:57:12.087Z,42.32
2022-08-26T17:59:43.379Z,40.85
2022-08-26T18:02:13.555Z,39.13
2022-08-26T18:04:44.058Z,38.46
2022-08-26T18:07:17.361Z,36.64
2022-08-26T18:09:47.884Z,35.49
2022-08-26T18:12:18.059Z,34.94
2022-08-26T18:14:48.538Z,34.21
2022-08-26T18:17:20.305Z,33.88
2022-08-26T18:19:51.146Z,34.33
2022-08-26T18:22:22.550Z,34.01
2022-08-26T18:24:59.084Z,34.53
2022-08-26T18:27:29.634Z,34.93
2022-08-26T18:30:00.418Z,35.92
2022-08-26T18:32:30.642Z,35.09
2022-08-26T18:35:01.161Z,34.97
2022-08-26T18:37:32.081Z,36.27
2022-08-26T18:40:02.713Z,36.78
2022-08-26T18:42:34.430Z,36.44
2022-08-26T18:45:06.819Z,35.33
2022-08-26T18:47:37.728Z,35.24
2022-08-26T18:50:09.679Z,35.45
2022-08-26T18:52:39.927Z,35.68
2022-08-26T18:55:10.967Z,36.79
2022-08-26T18:57:41.133Z,37.97
2022-08-26T19:00:12.531Z,37.68
2022-08-26T19:02:42.693Z,37.79
2022-08-26T19:05:22.403Z,37.00
2022-08-26T19:07:52.500Z,34.67
2022-08-26T19:10:22.996Z,34.26
2022-08-26T19:12:55.379Z,36.27
2022-08-26T19:15:29.401Z,36.22
2022-08-26T19:17:59.994Z,37.01
2022-08-26T19:20:30.502Z,37.43
2022-08-26T19:23:05.663Z,35.05
2022-08-26T19:25:46.906Z,33.83
2022-08-26T19:28:19.499Z,33.19
2022-08-26T19:30:53.259Z,32.90
2022-08-26T19:33:23.911Z,32.56
2022-08-26T19:35:54.578Z,32.07
2022-08-26T19:38:25.257Z,31.97
2022-08-26T19:40:59.593Z,31.79
2022-08-26T19:43:29.692Z,31.77
2022-08-26T19:46:03.002Z,32.03
2022-08-26T19:48:33.046Z,31.48
2022-08-26T19:51:03.585Z,31.89
2022-08-26T19:53:33.675Z,32.74
2022-08-26T19:56:04.347Z,33.12
2022-08-26T19:58:34.538Z,32.46
2022-08-26T20:01:05.754Z,33.93
2022-08-26T20:03:37.227Z,33.96
2022-08-26T20:06:09.659Z,34.18
2022-08-26T20:08:41.908Z,34.55
2022-08-26T20:11:15.811Z,35.40
2022-08-26T20:13:49.606Z,35.71
2022-08-26T20:16:20.189Z,35.95
2022-08-26T20:19:08.801Z,36.00
2022-08-26T20:21:41.027Z,36.08
2022-08-26T20:24:16.798Z,35.96
2022-08-26T20:26:47.355Z,35.87
2022-08-26T20:29:19.431Z,35.82
2022-08-26T20:31:50.541Z,34.34
2022-08-26T20:34:51.778Z,34.14
2022-08-26T20:37:23.026Z,34.45
2022-08-26T20:39:53.124Z,34.38
2022-08-26T20:42:23.595Z,34.22
2022-08-26T20:44:56.357Z,33.09
2022-08-26T20:47:26.870Z,33.09
2022-08-26T20:49:59.390Z,32.11
2022-08-26T20:52:29.895Z,32.75
2022-08-26T20:54:59.958Z,33.04
2022-08-26T20:57:30.512Z,30.86
2022-08-26T21:00:00.579Z,31.33
2022-08-26T21:02:31.009Z,32.01
2022-08-26T21:05:01.996Z,32.42
2022-08-26T21:07:32.594Z,30.57
2022-08-26T21:10:02.623Z,29.06
2022-08-26T21:12:33.703Z,28.32
2022-08-26T21:15:04.514Z,27.92
2022-08-26T21:17:35.862Z,27.70
2022-08-26T21:20:07.003Z,27.42
2022-08-26T21:22:37.420Z,27.15
2022-08-26T21:25:08.043Z,27.07
2022-08-26T21:27:39.192Z,26.81
2022-08-26T21:30:09.852Z,26.93
2022-08-26T21:32:40.214Z,26.80
2022-08-26T21:35:11.090Z,27.22
2022-08-26T21:37:42.075Z,27.25
2022-08-26T21:40:12.774Z,26.67
2022-08-26T21:42:43.229Z,27.63
2022-08-26T21:45:13.887Z,28.47
2022-08-26T21:47:44.660Z,29.04
2022-08-26T21:50:14.891Z,28.90
2022-08-26T21:52:45.347Z,28.62
2022-08-26T21:55:15.379Z,29.06
2022-08-26T21:57:45.959Z,29.06
2022-08-26T22:00:17.483Z,29.43
2022-08-26T22:02:51.346Z,29.59
2022-08-26T22:05:21.351Z,30.16
2022-08-26T22:07:52.814Z,29.34
2022-08-26T22:10:23.340Z,29.86
2022-08-26T22:12:53.806Z,28.15
2022-08-26T22:15:26.913Z,28.67
2022-08-26T22:17:59.843Z,28.86
2022-08-26T22:20:32.401Z,27.61
2022-08-26T22:23:02.936Z,27.85
2022-08-26T22:25:33.531Z,28.81
2022-08-26T22:28:04.441Z,29.30
2022-08-26T22:30:38.666Z,29.72
2022-08-26T22:33:10.591Z,29.88
2022-08-26T22:35:46.005Z,28.49
2022-08-26T22:38:16.728Z,29.42
2022-08-26T22:40:56.421Z,29.63
2022-08-26T22:43:28.740Z,29.93
2022-08-26T22:45:59.005Z,29.67
2022-08-26T22:48:29.595Z,29.97
2022-08-26T22:51:00.335Z,29.57
2022-08-26T22:53:31.026Z,28.77
2022-08-26T22:56:06.838Z,28.60
2022-08-26T22:58:37.682Z,28.88
2022-08-26T23:01:08.938Z,29.50
2022-08-26T23:03:39.980Z,29.73
2022-08-26T23:06:11.689Z,29.80
2022-08-26T23:08:43.164Z,29.84
2022-08-26T23:11:14.692Z,29.91
2022-08-26T23:13:45.386Z,29.91
2022-08-26T23:16:15.518Z,29.91
2022-08-26T23:18:46.361Z,29.65
2022-08-26T23:21:16.487Z,29.13
2022-08-26T23:23:47.119Z,29.06
2022-08-26T23:26:17.890Z,29.53
2022-08-26T23:28:48.570Z,29.52
2022-08-26T23:31:18.593Z,29.71
2022-08-26T23:34:07.490Z,29.72
2022-08-26T23:36:38.160Z,29.77
2022-08-26T23:39:08.689Z,29.76
2022-08-26T23:41:39.565Z,29.82
2022-08-26T23:44:10.077Z,29.89
2022-08-26T23:46:40.627Z,29.80
2022-08-26T23:49:11.228Z,29.66
2022-08-26T23:51:59.516Z,29.63
2022-08-26T23:54:30.022Z,29.57
2022-08-26T23:57:00.431Z,29.16
2022-08-26T23:59:31.049Z,28.74
